createdAt,value
2022-09-15T00:01:52.467Z,99192.09
2022-09-15T00:04:18.960Z,99192.09
2022-09-15T00:06:45.335Z,99179.63
2022-09-15T00:09:11.715Z,99175.31
2022-09-15T00:11:39.170Z,99163.47
2022-09-15T00:14:07.406Z,99169.91
2022-09-15T00:16:34.195Z,99164.53
2022-09-15T00:19:01.487Z,99169.31
2022-09-15T00:21:32.581Z,99163.94
2022-09-15T00:24:00.279Z,99159.59
2022-09-15T00:26:28.368Z,99152.53
2022-09-15T00:28:56.346Z,99158.53
2022-09-15T00:31:24.704Z,99151.50
2022-09-15T00:33:53.378Z,99145.28
2022-09-15T00:36:20.420Z,99145.28
2022-09-15T00:38:47.262Z,99149.84
2022-09-15T00:41:16.798Z,99142.81
2022-09-15T00:44:21.823Z,99151.72
2022-09-15T00:47:09.283Z,99153.59
2022-09-15T00:49:39.109Z,99129.56
2022-09-15T00:52:08.593Z,99148.41
2022-09-15T00:54:47.838Z,99137.66
2022-09-15T00:57:42.334Z,99140.50
2022-09-15T01:00:12.570Z,99145.09
2022-09-15T01:02:42.296Z,99135.38
2022-09-15T01:05:11.925Z,99135.56
2022-09-15T01:07:56.640Z,99131.03
2022-09-15T01:10:29.233Z,99138.28
2022-09-15T01:13:01.138Z,99137.44
2022-09-15T01:15:37.094Z,99139.28
2022-09-15T01:18:26.800Z,99131.22
2022-09-15T01:21:09.571Z,99136.84
2022-09-15T01:23:54.787Z,99134.97
2022-09-15T01:26:58.074Z,99135.16
2022-09-15T01:29:53.283Z,99133.75
2022-09-15T01:32:57.303Z,99140.75
2022-09-15T01:35:45.608Z,99139.13
2022-09-15T01:38:22.827Z,99138.31
2022-09-15T01:41:04.720Z,99137.69
2022-09-15T01:43:35.282Z,99127.94
2022-09-15T01:46:03.700Z,99138.34
2022-09-15T01:48:32.890Z,99131.50
2022-09-15T01:51:02.940Z,99130.66
2022-09-15T01:53:29.938Z,99119.31
2022-09-15T01:56:06.890Z,99137.91
2022-09-15T01:58:34.190Z,99127.13
2022-09-15T02:01:08.407Z,99111.88
2022-09-15T02:03:45.721Z,99130.88
2022-09-15T02:06:25.586Z,99134.59
2022-09-15T02:09:02.559Z,99124.88
2022-09-15T02:11:30.350Z,99131.09
2022-09-15T02:14:17.144Z,99137.50
2022-09-15T02:16:50.008Z,99134.00
2022-09-15T02:19:34.207Z,99128.59
2022-09-15T02:22:13.330Z,99134.22
2022-09-15T02:24:50.053Z,99126.16
2022-09-15T02:27:24.322Z,99117.25
2022-09-15T02:29:54.714Z,99126.34
2022-09-15T02:32:24.075Z,99130.06
2022-09-15T02:34:51.668Z,99129.03
2022-09-15T02:37:21.286Z,99139.19
2022-09-15T02:39:54.528Z,99131.13
2022-09-15T02:42:29.877Z,99126.41
2022-09-15T02:44:56.747Z,99131.94
2022-09-15T02:47:24.527Z,99137.53
2022-09-15T02:49:51.321Z,99127.66
2022-09-15T02:52:17.841Z,99135.91
2022-09-15T02:54:44.214Z,99138.59
2022-09-15T02:57:10.591Z,99135.28
2022-09-15T02:59:55.471Z,99134.25
2022-09-15T03:02:21.901Z,99136.34
2022-09-15T03:04:49.366Z,99121.81
2022-09-15T03:07:17.317Z,99127.41
2022-09-15T03:09:44.101Z,99122.69
2022-09-15T03:12:10.586Z,99127.03
2022-09-15T03:14:37.358Z,99130.97
2022-09-15T03:17:04.227Z,99129.28
2022-09-15T03:19:30.976Z,99133.03
2022-09-15T03:21:57.494Z,99127.66
2022-09-15T03:24:23.870Z,99129.72
2022-09-15T03:26:50.238Z,99132.19
2022-09-15T03:29:16.691Z,99122.06
2022-09-15T03:31:43.206Z,99092.53
2022-09-15T03:34:09.627Z,99125.38
2022-09-15T03:36:36.026Z,99115.06
2022-09-15T03:39:02.461Z,99111.94
2022-09-15T03:41:29.299Z,99120.22
2022-09-15T03:43:56.673Z,99121.03
2022-09-15T03:46:23.376Z,99111.09
2022-09-15T03:48:49.757Z,99122.06
2022-09-15T03:51:16.190Z,99118.16
2022-09-15T03:53:42.729Z,99107.81
2022-09-15T03:56:23.559Z,99105.53
2022-09-15T03:58:51.787Z,99114.44
2022-09-15T04:01:19.175Z,99114.44
2022-09-15T04:03:50.914Z,99123.34
2022-09-15T04:06:19.927Z,99110.94
2022-09-15T04:08:46.645Z,99102.88
2022-09-15T04:11:14.207Z,99108.44
2022-09-15T04:13:41.998Z,99111.13
2022-09-15T04:16:17.025Z,99109.47
2022-09-15T04:18:44.071Z,99110.31
2022-09-15T04:21:15.832Z,99105.34
2022-09-15T04:23:43.337Z,99112.16
2022-09-15T04:26:26.136Z,99100.56
2022-09-15T04:28:52.567Z,99103.72
2022-09-15T04:31:19.269Z,99113.22
2022-09-15T04:33:46.540Z,99106.19
2022-09-15T04:36:18.914Z,99112.41
2022-09-15T04:38:45.885Z,99115.09
2022-09-15T04:41:13.086Z,99099.59
2022-09-15T04:43:40.500Z,99106.19
2022-09-15T04:46:07.634Z,99111.56
2022-09-15T04:48:34.491Z,99100.81
2022-09-15T04:51:03.056Z,99109.91
2022-09-15T04:53:30.396Z,99103.72
2022-09-15T04:56:12.174Z,99091.09
2022-09-15T04:58:50.359Z,99097.72
2022-09-15T05:01:28.393Z,99100.41
2022-09-15T05:03:55.204Z,99099.59
2022-09-15T05:06:27.013Z,99104.13
2022-09-15T05:08:55.919Z,99100.81
2022-09-15T05:11:24.929Z,99106.81
2022-09-15T05:13:51.411Z,99109.75
2022-09-15T05:16:23.358Z,99112.44
2022-09-15T05:18:51.204Z,99117.81
2022-09-15T05:21:19.583Z,99107.03
2022-09-15T05:23:46.867Z,99112.44
2022-09-15T05:26:15.727Z,99113.69
2022-09-15T05:28:42.572Z,99110.75
2022-09-15T05:31:13.159Z,99115.31
2022-09-15T05:33:39.676Z,99111.81
2022-09-15T05:36:07.544Z,99114.50
2022-09-15T05:38:34.264Z,99103.75
2022-09-15T05:41:03.724Z,99102.91
2022-09-15T05:43:32.226Z,99105.81
2022-09-15T05:45:58.607Z,99091.75
2022-09-15T05:48:25.118Z,99098.78
2022-09-15T05:50:53.466Z,99104.16
2022-09-15T05:53:20.831Z,99102.50
2022-09-15T05:55:47.357Z,99105.22
2022-09-15T05:58:14.893Z,99105.22
2022-09-15T06:00:41.822Z,99099.00
2022-09-15T06:03:14.316Z,99102.50
2022-09-15T06:05:40.955Z,99113.28
2022-09-15T06:08:07.339Z,99117.00
2022-09-15T06:10:33.899Z,99117.00
2022-09-15T06:13:00.274Z,99113.47
2022-09-15T06:15:26.733Z,99121.56
2022-09-15T06:17:53.151Z,99123.44
2022-09-15T06:20:20.819Z,99118.03
2022-09-15T06:22:47.288Z,99098.81
2022-09-15T06:25:14.338Z,99118.88
2022-09-15T06:27:41.388Z,99119.09
2022-09-15T06:30:09.430Z,99119.09
2022-09-15T06:32:36.404Z,99123.44
2022-09-15T06:35:07.176Z,99112.66
2022-09-15T06:37:34.717Z,99120.94
2022-09-15T06:40:01.811Z,99114.75
2022-09-15T06:42:28.357Z,99124.47
2022-09-15T06:44:54.777Z,99113.91
2022-09-15T06:47:21.197Z,99122.00
2022-09-15T06:49:47.563Z,99102.16
2022-09-15T06:52:13.936Z,99133.78
2022-09-15T06:54:40.286Z,99143.88
2022-09-15T06:57:06.667Z,99136.91
2022-09-15T06:59:33.047Z,99150.78
2022-09-15T07:02:04.118Z,99140.19
2022-09-15T07:04:31.390Z,99138.34
2022-09-15T07:06:57.784Z,99150.13
2022-09-15T07:09:24.163Z,99140.19
2022-09-15T07:11:50.643Z,99143.88
2022-09-15T07:14:17.026Z,99143.72
2022-09-15T07:16:43.489Z,99146.41
2022-09-15T07:19:10.198Z,99149.09
2022-09-15T07:21:37.293Z,99154.47
2022-09-15T07:24:07.177Z,99154.47
2022-09-15T07:26:34.042Z,99156.31
2022-09-15T07:29:04.956Z,99157.34
2022-09-15T07:31:33.446Z,99155.50
2022-09-15T07:34:00.946Z,99160.03
2022-09-15T07:36:28.299Z,99162.97
2022-09-15T07:38:54.650Z,99173.72
2022-09-15T07:41:25.650Z,99171.03
2022-09-15T07:43:54.264Z,99171.84
2022-09-15T07:46:22.575Z,99166.66
2022-09-15T07:48:52.068Z,99177.44
2022-09-15T07:51:19.171Z,99168.34
2022-09-15T07:53:47.299Z,99164.59
2022-09-15T07:56:14.245Z,99162.72
2022-09-15T07:58:40.735Z,99158.19
2022-09-15T08:01:11.502Z,99164.22
2022-09-15T08:03:42.962Z,99166.91
2022-09-15T08:06:10.557Z,99175.81
2022-09-15T08:08:41.198Z,99166.47
2022-09-15T08:11:09.299Z,99154.88
2022-09-15T08:13:36.067Z,99169.97
2022-09-15T08:16:11.019Z,99165.44
2022-09-15T08:18:38.345Z,99157.78
2022-09-15T08:21:10.030Z,99170.81
2022-09-15T08:23:36.914Z,99174.34
2022-09-15T08:26:10.633Z,99163.78
2022-09-15T08:28:39.629Z,99168.72
2022-09-15T08:31:08.151Z,99157.75
2022-09-15T08:33:34.961Z,99173.91
2022-09-15T08:36:11.429Z,99163.78
2022-09-15T08:38:42.901Z,99173.72
2022-09-15T08:41:22.056Z,99173.47
2022-09-15T08:44:16.531Z,99174.09
2022-09-15T08:46:52.447Z,99180.31
2022-09-15T08:49:52.542Z,99171.41
2022-09-15T08:52:33.305Z,99184.84
2022-09-15T08:55:04.786Z,99184.03
2022-09-15T08:57:31.331Z,99186.53
2022-09-15T08:59:59.627Z,99194.59
2022-09-15T09:02:46.511Z,99192.94
2022-09-15T09:05:34.291Z,99198.72
2022-09-15T09:08:35.852Z,99201.41
2022-09-15T09:11:28.376Z,99227.50
2022-09-15T09:14:18.844Z,99220.69
2022-09-15T09:17:03.536Z,99215.50
2022-09-15T09:19:52.731Z,99212.81
2022-09-15T09:22:25.718Z,99204.16
2022-09-15T09:24:55.598Z,99213.25
2022-09-15T09:27:29.387Z,99204.31
2022-09-15T09:30:02.962Z,99206.81
2022-09-15T09:32:40.567Z,99212.19
2022-09-15T09:35:34.510Z,99193.19
2022-09-15T09:38:02.420Z,99193.16
2022-09-15T09:40:31.596Z,99201.00
2022-09-15T09:42:59.471Z,99203.69
2022-09-15T09:45:26.387Z,99193.78
2022-09-15T09:47:59.491Z,99186.53
2022-09-15T09:50:33.710Z,99181.56
2022-09-15T09:53:00.476Z,99193.13
2022-09-15T09:55:28.107Z,99209.28
2022-09-15T09:58:12.388Z,99208.47
2022-09-15T10:00:40.583Z,99198.72
2022-09-15T10:03:09.955Z,99203.06
2022-09-15T10:05:36.406Z,99196.63
2022-09-15T10:08:03.327Z,99202.03
2022-09-15T10:10:32.269Z,99185.88
2022-09-15T10:13:02.957Z,99189.19
2022-09-15T10:15:33.922Z,99172.25
2022-09-15T10:18:01.650Z,99171.59
2022-09-15T10:20:32.199Z,99180.91
2022-09-15T10:23:18.497Z,99191.88
2022-09-15T10:26:01.336Z,99178.25
2022-09-15T10:28:28.271Z,99181.13
2022-09-15T10:31:02.065Z,99170.34
2022-09-15T10:33:34.921Z,99161.44
2022-09-15T10:36:33.306Z,99169.53
2022-09-15T10:39:18.438Z,99190.00
2022-09-15T10:41:56.860Z,99212.38
2022-09-15T10:44:43.799Z,99199.34
2022-09-15T10:47:13.195Z,99191.88
2022-09-15T10:50:00.838Z,99206.16
2022-09-15T10:52:51.538Z,99183.41
2022-09-15T10:55:48.908Z,99196.44
2022-09-15T10:58:30.163Z,99196.63
2022-09-15T11:01:05.848Z,99197.69
2022-09-15T11:03:41.061Z,99191.69
2022-09-15T11:06:27.054Z,99198.72
2022-09-15T11:09:08.805Z,99197.09
2022-09-15T11:11:56.925Z,99202.47
2022-09-15T11:14:35.515Z,99188.16
2022-09-15T11:17:01.944Z,99195.41
2022-09-15T11:19:45.455Z,99196.22
2022-09-15T11:22:22.094Z,99198.09
2022-09-15T11:24:53.726Z,99177.66
2022-09-15T11:27:26.097Z,99203.47
2022-09-15T11:30:07.181Z,99205.34
2022-09-15T11:32:36.621Z,99193.53
2022-09-15T11:35:15.244Z,99198.91
2022-09-15T11:37:48.240Z,99190.03
2022-09-15T11:40:21.914Z,99195.22
2022-09-15T11:43:10.063Z,99183.66
2022-09-15T11:45:43.412Z,99195.81
2022-09-15T11:48:19.592Z,99209.91
2022-09-15T11:50:49.970Z,99203.06
2022-09-15T11:53:32.590Z,99194.56
2022-09-15T11:56:07.289Z,99204.28
2022-09-15T11:58:33.607Z,99207.19
2022-09-15T12:01:19.838Z,99204.50
2022-09-15T12:04:02.729Z,99227.06
2022-09-15T12:06:47.378Z,99191.31
2022-09-15T12:09:16.958Z,99210.31
2022-09-15T12:11:47.444Z,99200.38
2022-09-15T12:14:16.862Z,99221.31
2022-09-15T12:16:44.422Z,99197.31
2022-09-15T12:19:21.641Z,99215.91
2022-09-15T12:22:01.812Z,99223.38
2022-09-15T12:24:40.349Z,99218.59
2022-09-15T12:27:15.888Z,99206.19
2022-09-15T12:29:53.606Z,99233.09
2022-09-15T12:32:24.804Z,99223.13
2022-09-15T12:35:15.995Z,99223.38
2022-09-15T12:37:47.278Z,99207.03
2022-09-15T12:40:35.696Z,99216.53
2022-09-15T12:43:27.826Z,99233.28
2022-09-15T12:45:57.292Z,99212.59
2022-09-15T12:48:33.998Z,99206.00
2022-09-15T12:51:04.996Z,99216.31
2022-09-15T12:53:49.454Z,99217.13
2022-09-15T12:56:23.741Z,99222.53
2022-09-15T12:58:52.017Z,99228.75
2022-09-15T13:01:18.945Z,99225.00
2022-09-15T13:03:45.739Z,99222.75
2022-09-15T13:06:20.284Z,99219.66
2022-09-15T13:08:54.348Z,99224.22
2022-09-15T13:11:26.794Z,99206.00
2022-09-15T13:14:08.404Z,99219.66
2022-09-15T13:16:44.185Z,99224.22
2022-09-15T13:19:14.122Z,99237.03
2022-09-15T13:21:44.915Z,99224.19
2022-09-15T13:24:20.155Z,99209.72
2022-09-15T13:26:55.777Z,99224.59
2022-09-15T13:29:23.246Z,99205.34
2022-09-15T13:32:16.632Z,99232.03
2022-09-15T13:35:14.251Z,99215.66
2022-09-15T13:38:22.706Z,99227.03
2022-09-15T13:41:23.361Z,99216.28
2022-09-15T13:44:10.951Z,99217.94
2022-09-15T13:46:43.415Z,99231.59
2022-09-15T13:49:53.359Z,99234.09
2022-09-15T13:52:22.185Z,99234.09
2022-09-15T13:55:08.046Z,99233.03
2022-09-15T14:00:33.947Z,99203.25
2022-09-15T14:03:05.754Z,99217.91
2022-09-15T14:05:34.991Z,99220.63
2022-09-15T14:08:09.392Z,99222.88
2022-09-15T14:10:47.083Z,99217.72
2022-09-15T14:13:17.673Z,99223.69
2022-09-15T14:16:06.327Z,99227.59
2022-09-15T14:18:45.633Z,99236.53
2022-09-15T14:21:20.999Z,99263.47
2022-09-15T14:23:49.443Z,99248.13
2022-09-15T14:26:22.477Z,99233.44
2022-09-15T14:28:52.116Z,99242.28
2022-09-15T14:31:28.816Z,99243.97
2022-09-15T14:33:55.450Z,99233.59
2022-09-15T14:36:27.092Z,99236.06
2022-09-15T14:39:11.726Z,99222.78
2022-09-15T14:41:42.089Z,99224.44
2022-09-15T14:47:12.742Z,99215.88
2022-09-15T14:49:39.153Z,99217.88
2022-09-15T14:52:22.683Z,99214.94
2022-09-15T14:54:51.531Z,99223.53
2022-09-15T14:57:23.613Z,99208.84
2022-09-15T14:59:55.714Z,99216.66
2022-09-15T15:02:51.467Z,99217.50
2022-09-15T15:05:23.857Z,99208.84
2022-09-15T15:07:51.690Z,99235.75
2022-09-15T15:10:34.889Z,99231.41
2022-09-15T15:13:06.947Z,99242.84
2022-09-15T15:15:34.272Z,99243.06
2022-09-15T15:18:00.727Z,99255.09
2022-09-15T15:20:32.857Z,99241.22
2022-09-15T15:23:20.705Z,99237.09
2022-09-15T15:25:47.642Z,99224.78
2022-09-15T15:28:33.447Z,99246.91
2022-09-15T15:31:14.991Z,99227.41
2022-09-15T15:33:49.774Z,99240.50
2022-09-15T15:36:21.847Z,99226.41
2022-09-15T15:39:00.286Z,99194.22
2022-09-15T15:41:29.481Z,99223.97
2022-09-15T15:43:58.807Z,99248.19
2022-09-15T15:46:47.032Z,99244.06
2022-09-15T15:49:13.900Z,99236.44
2022-09-15T15:51:41.064Z,99243.25
2022-09-15T15:54:07.831Z,99246.78
2022-09-15T15:56:37.866Z,99249.47
2022-09-15T15:59:05.408Z,99244.28
2022-09-15T16:01:32.824Z,99232.72
2022-09-15T16:03:59.230Z,99204.81
2022-09-15T16:06:25.707Z,99239.34
2022-09-15T16:08:52.675Z,99224.00
2022-09-15T16:11:20.828Z,99245.16
2022-09-15T16:13:48.211Z,99238.72
2022-09-15T16:16:25.987Z,99237.28
2022-09-15T16:18:53.410Z,99255.28
2022-09-15T16:21:20.871Z,99241.81
2022-09-15T16:23:48.084Z,99247.22
2022-09-15T16:26:17.582Z,99244.72
2022-09-15T16:28:44.140Z,99241.84
2022-09-15T16:31:14.586Z,99246.59
2022-09-15T16:33:42.521Z,99243.28
2022-09-15T16:36:14.083Z,99234.44
2022-09-15T16:38:41.267Z,99255.09
2022-09-15T16:41:14.597Z,99254.28
2022-09-15T16:43:41.314Z,99260.72
2022-09-15T16:46:10.222Z,99258.44
2022-09-15T16:48:37.973Z,99245.19
2022-09-15T16:51:28.007Z,99254.28
2022-09-15T16:53:52.087Z,99247.28
2022-09-15T16:56:18.921Z,99247.28
2022-09-15T16:58:45.431Z,99237.56
2022-09-15T17:01:21.894Z,99257.44
2022-09-15T17:03:48.561Z,99235.50
2022-09-15T17:06:17.611Z,99253.88
2022-09-15T17:08:44.478Z,99204.13
2022-09-15T17:11:19.701Z,99246.88
2022-09-15T17:13:47.003Z,99240.66
2022-09-15T17:16:15.318Z,99247.88
2022-09-15T17:18:41.743Z,99239.00
2022-09-15T17:21:11.257Z,99253.50
2022-09-15T17:23:39.573Z,99250.81
2022-09-15T17:26:11.344Z,99239.22
2022-09-15T17:28:38.398Z,99240.25
2022-09-15T17:31:25.156Z,99248.31
2022-09-15T17:33:52.171Z,99233.25
2022-09-15T17:36:18.621Z,99232.00
2022-09-15T17:38:45.526Z,99239.47
2022-09-15T17:41:17.694Z,99245.84
2022-09-15T17:43:44.498Z,99249.59
2022-09-15T17:46:11.082Z,99241.50
2022-09-15T17:48:38.866Z,99239.84
2022-09-15T17:51:12.953Z,99248.75
2022-09-15T17:53:39.410Z,99246.06
2022-09-15T17:56:05.968Z,99235.31
2022-09-15T17:58:33.287Z,99238.63
2022-09-15T18:01:00.295Z,99252.72
2022-09-15T18:03:34.605Z,99238.22
2022-09-15T18:06:05.031Z,99239.69
2022-09-15T18:08:32.886Z,99249.16
2022-09-15T18:11:00.166Z,99244.03
2022-09-15T18:13:28.150Z,99247.53
2022-09-15T18:15:55.020Z,99252.28
2022-09-15T18:18:26.479Z,99243.41
2022-09-15T18:20:55.338Z,99247.13
2022-09-15T18:23:24.962Z,99250.88
2022-09-15T18:25:51.663Z,99236.56
2022-09-15T18:28:19.317Z,99242.16
2022-09-15T18:30:48.142Z,99243.00
2022-09-15T18:33:16.179Z,99239.47
2022-09-15T18:35:43.591Z,99234.31
2022-09-15T18:38:10.634Z,99234.13
2022-09-15T18:40:37.124Z,99237.00
2022-09-15T18:43:04.056Z,99238.03
2022-09-15T18:45:30.423Z,99236.16
2022-09-15T18:47:56.992Z,99243.00
2022-09-15T18:50:25.225Z,99242.38
2022-09-15T18:52:51.698Z,99202.28
2022-09-15T18:55:20.750Z,99241.13
2022-09-15T18:57:48.107Z,99234.50
2022-09-15T19:00:25.338Z,99234.50
2022-09-15T19:02:59.109Z,99234.31
2022-09-15T19:05:26.823Z,99240.72
2022-09-15T19:07:53.643Z,99235.13
2022-09-15T19:10:20.387Z,99238.25
2022-09-15T19:12:46.953Z,99228.31
2022-09-15T19:15:14.548Z,99243.63
2022-09-15T19:17:41.997Z,99238.44
2022-09-15T19:20:10.718Z,99245.72
2022-09-15T19:22:37.542Z,99234.13
2022-09-15T19:25:05.294Z,99235.56
2022-09-15T19:27:32.106Z,99235.97
2022-09-15T19:29:58.537Z,99203.94
2022-09-15T19:32:24.992Z,99247.78
2022-09-15T19:34:51.683Z,99244.25
2022-09-15T19:37:20.379Z,99241.56
2022-09-15T19:39:47.946Z,99245.28
2022-09-15T19:44:42.332Z,99246.34
2022-09-15T19:47:09.106Z,99239.09
2022-09-15T19:49:35.668Z,99234.97
2022-09-15T19:52:02.054Z,99225.22
2022-09-15T19:54:30.535Z,99226.06
2022-09-15T19:56:57.470Z,99234.53
2022-09-15T19:59:28.693Z,99225.25
2022-09-15T20:01:56.825Z,99230.84
2022-09-15T20:07:07.475Z,99221.72
2022-09-15T20:09:34.002Z,99233.09
2022-09-15T20:12:03.614Z,99233.94
2022-09-15T20:14:30.919Z,99227.94
2022-09-15T20:17:00.379Z,99228.53
2022-09-15T20:19:27.779Z,99188.03
2022-09-15T20:21:54.227Z,99221.09
2022-09-15T20:24:21.159Z,99225.25
2022-09-15T20:26:48.114Z,99189.88
2022-09-15T20:29:14.677Z,99218.00
2022-09-15T20:31:41.511Z,99215.31
2022-09-15T20:34:08.308Z,99220.72
2022-09-15T20:36:37.477Z,99224.41
2022-09-15T20:39:06.470Z,99225.25
2022-09-15T20:41:32.906Z,99218.66
2022-09-15T20:44:00.180Z,99221.72
2022-09-15T20:46:28.793Z,99214.28
2022-09-15T20:48:55.266Z,99225.25
2022-09-15T20:51:24.384Z,99219.03
2022-09-15T20:53:53.400Z,99220.09
2022-09-15T20:56:24.658Z,99225.66
2022-09-15T20:58:52.818Z,99214.91
2022-09-15T21:01:28.134Z,99208.72
2022-09-15T21:03:55.633Z,99198.56
2022-09-15T21:06:24.907Z,99196.50
2022-09-15T21:08:52.018Z,99215.09
2022-09-15T21:11:20.459Z,99210.78
2022-09-15T21:13:48.630Z,99206.41
2022-09-15T21:16:18.409Z,99205.59
2022-09-15T21:18:45.483Z,99205.59
2022-09-15T21:21:14.456Z,99206.63
2022-09-15T21:24:08.042Z,99206.63
2022-09-15T21:26:57.046Z,99194.19
2022-09-15T21:29:24.070Z,99194.19
2022-09-15T21:31:50.888Z,99195.25
2022-09-15T21:34:17.361Z,99187.19
2022-09-15T21:36:43.726Z,99189.00
2022-09-15T21:39:10.175Z,99194.41
2022-09-15T21:41:36.719Z,99191.94
2022-09-15T21:44:03.621Z,99192.75
2022-09-15T21:46:31.903Z,99186.56
2022-09-15T21:48:59.660Z,99185.72
2022-09-15T21:51:28.286Z,99177.03
2022-09-15T21:53:57.070Z,99179.94
2022-09-15T21:56:24.403Z,99174.97
2022-09-15T21:58:50.905Z,99173.31
2022-09-15T22:01:23.714Z,99178.09
2022-09-15T22:03:55.581Z,99189.03
2022-09-15T22:06:27.743Z,99196.09
2022-09-15T22:08:55.321Z,99154.34
2022-09-15T22:11:22.750Z,99190.31
2022-09-15T22:13:49.365Z,99190.91
2022-09-15T22:16:21.615Z,99193.59
2022-09-15T22:18:48.398Z,99189.03
2022-09-15T22:21:17.821Z,99192.78
2022-09-15T22:23:46.075Z,99180.97
2022-09-15T22:26:18.946Z,99184.91
2022-09-15T22:28:46.371Z,99178.72
2022-09-15T22:31:14.766Z,99174.16
2022-09-15T22:33:42.341Z,99167.94
2022-09-15T22:36:14.070Z,99171.69
2022-09-15T22:38:40.973Z,99176.22
2022-09-15T22:41:11.936Z,99162.16
2022-09-15T22:43:39.743Z,99177.06
2022-09-15T22:46:07.482Z,99170.03
2022-09-15T22:48:34.312Z,99167.31
2022-09-15T22:51:01.087Z,99175.41
2022-09-15T22:53:27.576Z,99166.28
2022-09-15T22:56:05.634Z,99166.72
2022-09-15T22:58:33.029Z,99177.47
2022-09-15T23:01:07.976Z,99166.28
2022-09-15T23:03:34.433Z,99171.28
2022-09-15T23:06:01.113Z,99172.28
2022-09-15T23:08:28.732Z,99164.47
2022-09-15T23:11:08.337Z,99167.16
2022-09-15T23:13:34.988Z,99158.88
2022-09-15T23:16:02.054Z,99158.03
2022-09-15T23:18:29.618Z,99167.16
2022-09-15T23:21:00.624Z,99161.16
2022-09-15T23:23:28.165Z,99164.03
2022-09-15T23:25:55.239Z,99157.63
2022-09-15T23:28:21.790Z,99143.19
2022-09-15T23:30:55.945Z,99155.16
2022-09-15T23:33:23.231Z,99160.53
2022-09-15T23:35:50.320Z,99143.59
2022-09-15T23:38:18.025Z,99150.78
2022-09-15T23:40:45.364Z,99157.22
2022-09-15T23:43:12.753Z,99133.84
2022-09-15T23:45:39.773Z,99158.25
2022-09-15T23:48:10.671Z,99153.72
2022-09-15T23:50:38.422Z,99150.19
2022-09-15T23:53:05.798Z,99148.97
2022-09-15T23:55:32.756Z,99144.22
2022-09-15T23:57:59.251Z,99149.16
